Time;durP1;ratioP1;P1;durP2;ratioP2;P2;SDS_P1;SDS_P2;PMS_P1;PMS_P2;Temp;Humidity;BMP_temperature;BMP_pressure;BME280_temperature;BME280_humidity;BME280_pressure;Samples;Min_cycle;Max_cycle;Signal;HPM_P1;HPM_P2
2022/04/15 00:02:12;;;;;;;13.80;11.52;;;16.30;74.60;;;;;;5056676;28;20110;-64
2022/04/15 00:04:38;;;;;;;15.45;12.27;;;16.30;74.90;;;;;;5056467;28;20416;-64
2022/04/15 00:07:04;;;;;;;14.25;12.15;;;16.20;75.20;;;;;;5057269;28;20033;-64
2022/04/15 00:09:35;;;;;;;14.77;12.07;;;16.20;75.40;;;;;;5055788;28;20035;-65
2022/04/15 00:12:06;;;;;;;15.18;11.68;;;16.10;75.60;;;;;;5051963;28;20032;-64
2022/04/15 00:14:34;;;;;;;13.32;10.98;;;16.10;75.60;;;;;;5056066;28;20029;-64
2022/04/15 00:16:59;;;;;;;12.50;10.80;;;16.10;75.80;;;;;;5057360;28;20401;-64
2022/04/15 00:19:25;;;;;;;12.30;10.05;;;16.10;75.70;;;;;;5057456;28;20033;-64
2022/04/15 00:21:50;;;;;;;13.68;11.05;;;16.10;75.80;;;;;;5057051;28;20033;-64
2022/04/15 00:24:16;;;;;;;13.90;11.07;;;16.00;75.80;;;;;;5056689;28;20045;-64
2022/04/15 00:26:42;;;;;;;14.65;10.93;;;16.00;76.00;;;;;;5056537;28;20032;-64
2022/04/15 00:29:07;;;;;;;12.98;11.27;;;16.00;76.20;;;;;;5058753;28;20025;-64
2022/04/15 00:31:36;;;;;;;13.77;9.70;;;16.00;76.30;;;;;;5062884;28;20197;-64
2022/04/15 00:34:02;;;;;;;13.18;10.55;;;15.90;76.80;;;;;;5056683;28;20529;-64
2022/04/15 00:36:28;;;;;;;11.82;9.73;;;15.90;76.60;;;;;;5056250;28;20204;-64
2022/04/15 00:38:54;;;;;;;10.82;9.68;;;15.90;76.50;;;;;;5056826;28;20031;-64
2022/04/15 00:41:20;;;;;;;11.32;9.48;;;15.90;76.40;;;;;;5058231;28;20029;-64
2022/04/15 00:43:45;;;;;;;14.27;10.13;;;15.90;76.40;;;;;;5056193;28;20037;-65
2022/04/15 00:46:17;;;;;;;12.70;10.48;;;15.90;76.40;;;;;;5057305;28;20037;-64
2022/04/15 00:48:42;;;;;;;12.65;10.68;;;15.90;76.60;;;;;;5056049;28;20044;-64
2022/04/15 00:51:08;;;;;;;13.82;9.48;;;15.90;76.30;;;;;;5057181;28;20033;-64
2022/04/15 00:53:38;;;;;;;12.55;9.68;;;15.90;76.10;;;;;;5056688;28;20520;-64
2022/04/15 00:56:06;;;;;;;10.90;9.30;;;15.90;76.00;;;;;;5056363;28;20033;-64
2022/04/15 00:58:38;;;;;;;14.23;10.82;;;15.90;75.90;;;;;;5055994;28;20024;-64
2022/04/15 01:01:05;;;;;;;13.15;10.38;;;15.90;76.10;;;;;;5057959;28;20060;-64
2022/04/15 01:03:35;;;;;;;11.82;10.20;;;15.90;76.00;;;;;;5058035;28;20042;-63
2022/04/15 01:06:03;;;;;;;12.30;9.70;;;15.90;76.30;;;;;;5057062;28;20055;-64
2022/04/15 01:08:30;;;;;;;11.63;10.23;;;15.90;75.90;;;;;;5057873;28;20020;-64
2022/04/15 01:10:58;;;;;;;11.48;10.25;;;15.90;75.80;;;;;;5054503;28;20036;-64
2022/04/15 01:13:26;;;;;;;11.85;9.77;;;15.90;75.80;;;;;;5058347;28;20371;-64
2022/04/15 01:15:54;;;;;;;13.40;10.65;;;15.90;75.80;;;;;;5059809;28;20044;-64
2022/04/15 01:18:20;;;;;;;13.63;10.50;;;15.80;75.90;;;;;;5060958;28;20062;-64
2022/04/15 01:20:51;;;;;;;13.15;10.20;;;15.80;76.00;;;;;;5059652;28;20037;-64
2022/04/15 01:23:17;;;;;;;10.38;9.30;;;15.80;76.50;;;;;;5060330;28;20099;-65
2022/04/15 01:25:43;;;;;;;11.60;10.40;;;15.70;75.90;;;;;;5058457;28;20429;-64
2022/04/15 01:28:16;;;;;;;12.82;10.88;;;15.70;75.80;;;;;;5061199;28;20035;-64
2022/04/15 01:30:44;;;;;;;14.50;10.50;;;15.60;76.00;;;;;;5058895;28;20032;-64
2022/04/15 01:33:09;;;;;;;12.35;10.48;;;15.60;76.00;;;;;;5059612;28;20435;-64
2022/04/15 01:35:35;;;;;;;14.27;11.35;;;15.50;76.10;;;;;;5063282;28;20051;-63
2022/04/15 01:38:07;;;;;;;12.00;10.25;;;15.40;76.30;;;;;;5059965;28;20040;-64
2022/04/15 01:40:33;;;;;;;11.50;9.95;;;15.40;76.60;;;;;;5057923;28;20538;-62
2022/04/15 01:43:02;;;;;;;13.48;10.38;;;15.30;76.60;;;;;;5059624;28;20041;-64
2022/04/15 01:45:27;;;;;;;13.25;10.98;;;15.30;77.20;;;;;;5060476;28;20036;-64
2022/04/15 01:47:56;;;;;;;12.85;11.48;;;15.30;77.20;;;;;;5061338;28;20044;-64
2022/04/15 01:50:23;;;;;;;13.20;11.70;;;15.20;77.80;;;;;;5059337;28;20049;-64
2022/04/15 01:52:49;;;;;;;17.08;13.10;;;15.20;77.80;;;;;;5057562;28;20048;-64
2022/04/15 01:55:14;;;;;;;14.23;11.88;;;15.10;77.90;;;;;;5060378;28;20033;-64
2022/04/15 01:57:40;;;;;;;12.93;11.32;;;15.10;77.90;;;;;;5058751;28;20695;-62
2022/04/15 02:00:06;;;;;;;14.07;11.68;;;15.00;79.10;;;;;;5054494;28;20045;-63
2022/04/15 02:02:32;;;;;;;12.18;10.90;;;15.00;78.30;;;;;;5056756;28;20040;-64
2022/04/15 02:04:59;;;;;;;12.00;10.60;;;15.00;78.40;;;;;;5055482;28;20032;-64
2022/04/15 02:07:24;;;;;;;11.07;9.98;;;14.90;78.60;;;;;;5056728;28;20041;-64
2022/04/15 02:09:50;;;;;;;11.90;10.02;;;15.00;78.50;;;;;;5056389;28;20037;-64
2022/04/15 02:12:16;;;;;;;15.15;11.10;;;14.90;78.60;;;;;;5058135;28;20063;-62
2022/04/15 02:14:41;;;;;;;12.10;10.75;;;14.80;78.60;;;;;;5057598;28;20378;-64
2022/04/15 02:17:10;;;;;;;12.68;11.07;;;14.80;78.90;;;;;;5057364;28;20025;-64
2022/04/15 02:19:35;;;;;;;23.40;14.25;;;14.70;78.90;;;;;;5055229;28;20089;-63
2022/04/15 02:22:01;;;;;;;20.00;13.00;;;14.70;79.20;;;;;;5056061;28;20393;-64
2022/04/15 02:24:27;;;;;;;15.82;12.32;;;14.60;79.40;;;;;;5058600;28;20036;-63
2022/04/15 02:26:52;;;;;;;14.32;10.75;;;14.60;79.50;;;;;;5056363;28;20082;-64
2022/04/15 02:29:18;;;;;;;15.50;11.73;;;14.50;79.60;;;;;;5058459;28;20040;-64
2022/04/15 02:31:43;;;;;;;28.67;17.00;;;14.50;79.60;;;;;;5055598;28;20530;-64
2022/04/15 02:34:09;;;;;;;14.38;11.60;;;14.50;79.80;;;;;;5058121;28;20052;-64
2022/04/15 02:36:35;;;;;;;14.52;10.40;;;14.50;80.00;;;;;;5058607;28;20032;-64
2022/04/15 02:39:00;;;;;;;11.45;10.07;;;14.40;79.90;;;;;;5057345;28;20047;-64
2022/04/15 02:41:26;;;;;;;11.48;9.70;;;14.40;80.00;;;;;;5056627;28;20118;-64
2022/04/15 02:43:54;;;;;;;11.00;9.18;;;14.40;80.00;;;;;;5054645;28;20025;-64
2022/04/15 02:46:22;;;;;;;10.02;8.93;;;14.40;79.80;;;;;;5057010;28;20024;-64
2022/04/15 02:48:47;;;;;;;11.27;9.23;;;14.40;79.80;;;;;;5054177;28;20784;-64
2022/04/15 02:51:17;;;;;;;8.88;7.97;;;14.40;79.50;;;;;;5055314;28;20041;-64
2022/04/15 02:53:43;;;;;;;11.32;9.00;;;14.40;79.50;;;;;;5056100;28;20044;-63
2022/04/15 02:56:09;;;;;;;11.43;8.45;;;14.40;79.40;;;;;;5054484;28;20349;-64
2022/04/15 02:58:34;;;;;;;9.75;8.25;;;14.40;79.40;;;;;;5055294;28;20029;-64
2022/04/15 03:01:00;;;;;;;11.70;9.10;;;14.40;79.10;;;;;;5056451;28;20043;-65
2022/04/15 03:03:27;;;;;;;10.57;8.43;;;14.40;79.10;;;;;;5053760;28;20040;-64
2022/04/15 03:05:53;;;;;;;9.18;7.97;;;14.40;79.00;;;;;;5055344;28;20045;-63
2022/04/15 03:08:19;;;;;;;9.68;8.70;;;14.40;78.90;;;;;;5055446;28;20039;-64
2022/04/15 03:10:44;;;;;;;10.25;8.00;;;14.40;78.90;;;;;;5053537;28;20039;-64
2022/04/15 03:13:10;;;;;;;9.82;8.38;;;14.30;78.90;;;;;;5054752;28;20033;-64
2022/04/15 03:15:37;;;;;;;9.30;8.30;;;14.30;78.80;;;;;;5056814;28;20051;-64
2022/04/15 03:18:03;;;;;;;11.60;8.38;;;14.30;78.90;;;;;;5055676;28;20248;-64
2022/04/15 03:20:28;;;;;;;9.98;8.18;;;14.30;78.90;;;;;;5055671;28;20074;-64
2022/04/15 03:22:54;;;;;;;9.65;7.82;;;14.20;78.70;;;;;;5057513;28;20521;-64
2022/04/15 03:25:19;;;;;;;9.52;7.30;;;14.30;78.70;;;;;;5057009;28;20059;-64
2022/04/15 03:27:46;;;;;;;8.43;7.47;;;14.30;78.70;;;;;;5055941;28;20576;-61
2022/04/15 03:30:12;;;;;;;8.25;7.45;;;14.30;78.70;;;;;;5056851;28;20058;-64
2022/04/15 03:32:46;;;;;;;8.45;7.65;;;14.30;78.70;;;;;;5057964;28;20513;-64
2022/04/15 03:35:11;;;;;;;8.13;7.28;;;14.30;79.30;;;;;;5055271;28;20386;-63
2022/04/15 03:37:37;;;;;;;8.55;7.68;;;14.30;78.80;;;;;;5055857;28;20044;-63
2022/04/15 03:40:05;;;;;;;10.13;8.80;;;14.30;78.80;;;;;;5057029;28;20036;-64
2022/04/15 03:42:30;;;;;;;9.50;8.02;;;14.30;78.90;;;;;;5053386;28;20041;-63
2022/04/15 03:44:56;;;;;;;9.50;8.50;;;14.30;78.90;;;;;;5056177;28;20090;-64
2022/04/15 03:47:22;;;;;;;10.43;8.15;;;14.30;79.10;;;;;;5056345;28;20456;-64
2022/04/15 03:49:55;;;;;;;9.18;8.07;;;14.30;79.20;;;;;;5053000;28;20044;-63
2022/04/15 03:52:24;;;;;;;9.70;8.32;;;14.30;79.40;;;;;;5053792;28;20029;-64
2022/04/15 03:54:49;;;;;;;10.40;8.30;;;14.30;79.20;;;;;;5055869;28;20035;-64
2022/04/15 03:57:15;;;;;;;10.18;7.70;;;14.30;79.20;;;;;;5056131;28;20037;-63
2022/04/15 03:59:40;;;;;;;8.75;6.70;;;14.30;79.10;;;;;;5055447;28;20033;-63
2022/04/15 04:02:06;;;;;;;7.53;6.53;;;14.30;79.10;;;;;;5054344;28;20029;-64
2022/04/15 04:04:32;;;;;;;6.68;6.00;;;14.30;79.10;;;;;;5053099;28;20071;-64
2022/04/15 04:06:57;;;;;;;9.25;6.43;;;14.30;80.00;;;;;;5055051;28;20277;-63
2022/04/15 04:09:23;;;;;;;8.02;6.45;;;14.30;79.00;;;;;;5052782;28;20071;-63
2022/04/15 04:11:51;;;;;;;7.03;6.32;;;14.30;79.00;;;;;;5056475;28;22151;-63
2022/04/15 04:14:17;;;;;;;7.10;6.40;;;14.20;79.10;;;;;;5056493;28;20549;-64
2022/04/15 04:16:43;;;;;;;7.75;6.05;;;14.20;79.10;;;;;;5055068;28;21367;-64
2022/04/15 04:19:08;;;;;;;8.68;7.55;;;14.20;79.20;;;;;;5056010;28;20460;-63
2022/04/15 04:21:34;;;;;;;8.95;8.05;;;14.20;79.30;;;;;;5054608;28;20060;-64
2022/04/15 04:24:00;;;;;;;10.38;7.82;;;14.20;79.40;;;;;;5054653;28;20050;-63
2022/04/15 04:26:25;;;;;;;10.90;7.93;;;14.20;79.40;;;;;;5053870;28;20024;-64
2022/04/15 04:28:51;;;;;;;10.60;8.80;;;14.30;79.40;;;;;;5053955;28;20054;-63
2022/04/15 04:31:19;;;;;;;9.80;8.48;;;14.30;79.40;;;;;;5055095;28;20028;-64
2022/04/15 04:33:44;;;;;;;10.07;8.63;;;14.20;79.30;;;;;;5066357;28;20024;-63
2022/04/15 04:36:10;;;;;;;9.10;8.18;;;14.20;79.30;;;;;;5056470;28;20490;-64
2022/04/15 04:38:35;;;;;;;11.05;8.57;;;14.10;79.40;;;;;;5057151;28;20115;-63
2022/04/15 04:41:01;;;;;;;11.32;8.32;;;14.10;79.60;;;;;;5055761;28;20167;-63
2022/04/15 04:43:27;;;;;;;9.63;8.48;;;14.10;79.80;;;;;;5053836;28;20107;-63
2022/04/15 04:45:53;;;;;;;10.60;7.90;;;14.00;79.80;;;;;;5053631;28;20298;-64
2022/04/15 04:48:18;;;;;;;9.20;8.30;;;14.00;80.00;;;;;;5051195;28;20033;-64
2022/04/15 04:50:46;;;;;;;8.50;7.45;;;14.00;80.20;;;;;;5052863;28;20037;-64
2022/04/15 04:53:11;;;;;;;10.32;7.50;;;14.00;80.20;;;;;;5053035;28;20454;-64
2022/04/15 04:55:38;;;;;;;8.70;7.18;;;14.00;80.20;;;;;;5055178;28;20067;-64
2022/04/15 04:58:04;;;;;;;9.88;7.40;;;14.10;80.30;;;;;;5054373;28;20029;-63
2022/04/15 05:00:29;;;;;;;10.35;8.23;;;14.10;80.30;;;;;;5053684;28;20047;-64
2022/04/15 05:02:55;;;;;;;10.50;7.57;;;14.10;80.20;;;;;;5055005;28;20029;-64
2022/04/15 05:05:20;;;;;;;9.93;8.23;;;14.10;80.20;;;;;;5054915;28;20040;-64
2022/04/15 05:07:46;;;;;;;8.73;7.22;;;14.20;80.20;;;;;;5053063;28;21166;-64
2022/04/15 05:10:12;;;;;;;9.68;7.93;;;14.20;80.20;;;;;;5056294;28;20032;-64
2022/04/15 05:12:37;;;;;;;8.55;6.97;;;14.20;81.00;;;;;;5052486;28;20071;-63
2022/04/15 05:15:03;;;;;;;8.85;7.15;;;14.20;80.00;;;;;;5053424;28;20124;-64
2022/04/15 05:17:29;;;;;;;9.35;7.30;;;14.20;79.90;;;;;;5055520;28;20038;-64
2022/04/15 05:19:54;;;;;;;8.20;6.82;;;14.20;79.80;;;;;;5057588;28;20551;-63
2022/04/15 05:22:22;;;;;;;8.68;7.13;;;14.30;79.90;;;;;;5055974;28;20062;-64
2022/04/15 05:24:48;;;;;;;8.07;7.15;;;14.30;80.00;;;;;;5051121;28;20090;-64
2022/04/15 05:27:14;;;;;;;7.40;6.60;;;14.30;80.10;;;;;;5056840;28;20452;-63
2022/04/15 05:29:39;;;;;;;16.08;11.60;;;14.30;79.90;;;;;;5053259;28;20033;-64
2022/04/15 05:32:05;;;;;;;26.27;17.73;;;14.30;79.70;;;;;;5053522;28;20406;-64
2022/04/15 05:34:31;;;;;;;10.88;8.02;;;14.40;79.80;;;;;;5054315;28;20129;-63
2022/04/15 05:36:56;;;;;;;10.63;7.93;;;14.40;79.80;;;;;;5054043;28;20029;-64
2022/04/15 05:39:22;;;;;;;8.55;7.43;;;14.40;79.80;;;;;;5052771;28;20403;-64
2022/04/15 05:41:47;;;;;;;8.52;7.00;;;14.40;79.50;;;;;;5054394;28;20402;-64
2022/04/15 05:44:14;;;;;;;8.93;6.57;;;14.40;79.30;;;;;;5054249;28;20666;-61
2022/04/15 05:46:42;;;;;;;8.80;6.85;;;14.50;79.10;;;;;;5052077;28;20036;-64
2022/04/15 05:49:13;;;;;;;12.82;8.93;;;14.40;79.00;;;;;;5052709;28;20119;-64
2022/04/15 05:51:39;;;;;;;17.27;11.93;;;14.40;79.10;;;;;;5056810;28;20129;-64
2022/04/15 05:54:05;;;;;;;10.13;8.85;;;14.40;79.00;;;;;;5052276;28;20040;-63
2022/04/15 05:56:30;;;;;;;11.15;8.45;;;14.40;78.90;;;;;;5054045;28;20059;-64
2022/04/15 05:58:56;;;;;;;9.82;6.80;;;14.30;78.80;;;;;;5054088;28;20036;-64
2022/04/15 06:01:22;;;;;;;7.95;5.88;;;14.30;79.10;;;;;;5056569;28;20048;-63
2022/04/15 06:03:48;;;;;;;6.25;5.65;;;14.30;78.90;;;;;;5056399;28;20564;-64
2022/04/15 06:06:14;;;;;;;6.90;5.38;;;14.30;78.80;;;;;;5057076;28;20044;-63
2022/04/15 06:08:39;;;;;;;7.22;5.18;;;14.30;78.70;;;;;;5054858;28;20033;-63
2022/04/15 06:11:05;;;;;;;5.65;5.10;;;14.30;78.90;;;;;;5056452;28;20036;-64
2022/04/15 06:13:31;;;;;;;7.22;4.78;;;14.40;79.10;;;;;;5060467;28;20401;-64
2022/04/15 06:15:58;;;;;;;5.35;4.72;;;14.40;78.80;;;;;;5057945;28;20033;-63
2022/04/15 06:18:34;;;;;;;5.35;4.82;;;14.50;78.70;;;;;;5056595;28;20041;-64
2022/04/15 06:21:00;;;;;;;6.60;4.97;;;14.50;78.70;;;;;;5056928;28;20043;-64
2022/04/15 06:23:27;;;;;;;6.05;5.32;;;14.60;78.50;;;;;;5058209;28;20029;-64
2022/04/15 06:25:53;;;;;;;5.43;4.93;;;14.60;78.40;;;;;;5054111;28;20635;-64
2022/04/15 06:28:21;;;;;;;5.85;4.93;;;14.60;78.40;;;;;;5060923;28;20668;-64
2022/04/15 06:30:47;;;;;;;7.07;4.47;;;14.60;78.40;;;;;;5061095;28;20036;-64
2022/04/15 06:33:15;;;;;;;5.18;4.68;;;14.70;78.30;;;;;;5055437;28;20579;-64
2022/04/15 06:35:41;;;;;;;5.32;4.70;;;14.70;77.80;;;;;;5057674;28;20033;-64
2022/04/15 06:38:06;;;;;;;6.47;5.40;;;14.70;77.70;;;;;;5056960;28;20079;-62
2022/04/15 06:40:32;;;;;;;7.85;4.82;;;14.70;77.50;;;;;;5055717;28;20127;-63
2022/04/15 06:42:58;;;;;;;5.75;4.75;;;14.70;77.20;;;;;;5057634;28;20029;-63
2022/04/15 06:45:24;;;;;;;5.45;4.93;;;14.70;77.50;;;;;;5056818;28;20167;-64
2022/04/15 06:47:49;;;;;;;8.70;5.53;;;14.70;77.50;;;;;;5056626;28;20894;-63
2022/04/15 06:50:16;;;;;;;6.90;4.93;;;14.70;77.50;;;;;;5056119;28;20167;-64
2022/04/15 06:52:41;;;;;;;7.63;5.25;;;14.70;77.40;;;;;;5057225;28;20109;-64
2022/04/15 06:55:08;;;;;;;7.13;5.13;;;14.70;77.30;;;;;;5053596;28;20044;-65
2022/04/15 06:57:33;;;;;;;5.93;5.15;;;14.70;77.30;;;;;;5055425;28;20044;-64
2022/04/15 06:59:59;;;;;;;6.28;4.85;;;14.80;77.30;;;;;;5055287;28;20029;-65
2022/04/15 07:02:26;;;;;;;7.35;5.07;;;14.80;77.30;;;;;;5056310;28;20025;-66
2022/04/15 07:04:52;;;;;;;6.45;4.75;;;14.80;77.50;;;;;;5058219;28;20501;-66
2022/04/15 07:07:17;;;;;;;4.93;4.43;;;14.90;77.70;;;;;;5059227;28;20119;-66
2022/04/15 07:09:44;;;;;;;6.05;4.53;;;14.90;77.40;;;;;;5058801;28;20116;-66
2022/04/15 07:12:10;;;;;;;4.60;3.97;;;15.00;76.80;;;;;;5057762;28;20036;-66
2022/04/15 07:14:36;;;;;;;7.47;4.20;;;15.10;76.60;;;;;;5057535;28;20036;-64
2022/04/15 07:17:01;;;;;;;5.40;4.70;;;15.10;76.70;;;;;;5055618;28;20389;-64
2022/04/15 07:19:27;;;;;;;5.32;4.05;;;15.20;76.60;;;;;;5057451;28;20405;-63
2022/04/15 07:21:53;;;;;;;4.90;4.35;;;15.20;76.80;;;;;;5061592;28;20076;-64
2022/04/15 07:24:18;;;;;;;4.95;4.45;;;15.30;76.40;;;;;;5056084;28;20554;-64
2022/04/15 07:26:44;;;;;;;6.38;4.20;;;15.30;76.30;;;;;;5055106;28;20115;-63
2022/04/15 07:29:10;;;;;;;5.85;4.00;;;15.40;76.50;;;;;;5059175;28;20069;-64
2022/04/15 07:31:35;;;;;;;4.72;4.25;;;15.40;76.30;;;;;;5060605;28;20120;-64
2022/04/15 07:34:01;;;;;;;5.40;4.10;;;15.50;76.50;;;;;;5054788;28;20082;-63
2022/04/15 07:38:59;;;;;;;6.53;4.50;;;15.70;75.90;;;;;;5054339;28;20057;-62
2022/04/15 07:41:25;;;;;;;6.60;4.15;;;15.80;75.20;;;;;;5054828;28;20071;-64
2022/04/15 07:43:51;;;;;;;5.75;4.10;;;15.80;74.40;;;;;;5055895;28;20119;-64
2022/04/15 07:46:16;;;;;;;4.35;3.95;;;15.80;74.20;;;;;;5054680;28;20052;-64
2022/04/15 07:48:42;;;;;;;5.43;4.72;;;15.90;74.00;;;;;;5054535;28;20041;-64
2022/04/15 07:51:09;;;;;;;5.20;4.47;;;15.90;74.00;;;;;;5055448;28;20516;-64
2022/04/15 07:53:34;;;;;;;8.45;4.80;;;16.00;74.20;;;;;;5055968;28;20040;-64
2022/04/15 07:56:01;;;;;;;5.93;4.75;;;16.00;74.00;;;;;;5054786;28;20209;-64
2022/04/15 07:58:27;;;;;;;6.63;5.05;;;16.10;73.70;;;;;;5053268;28;20166;-63
2022/04/15 08:00:52;;;;;;;5.38;4.85;;;16.10;73.50;;;;;;5055749;28;20120;-64
2022/04/15 08:03:20;;;;;;;6.57;4.72;;;16.20;73.30;;;;;;5052479;28;20548;-64
2022/04/15 08:05:48;;;;;;;7.13;5.00;;;16.20;73.30;;;;;;5054291;28;20071;-64
2022/04/15 08:08:14;;;;;;;7.53;5.40;;;16.30;73.10;;;;;;5053655;28;20450;-63
2022/04/15 08:10:40;;;;;;;6.13;5.00;;;16.40;72.80;;;;;;5052835;28;20075;-64
2022/04/15 08:13:06;;;;;;;6.50;5.32;;;16.40;72.30;;;;;;5055348;28;20052;-64
2022/04/15 08:15:32;;;;;;;6.05;5.45;;;16.50;73.00;;;;;;5056456;28;20057;-64
2022/04/15 08:17:57;;;;;;;7.70;5.72;;;16.50;72.10;;;;;;5056053;28;20060;-64
2022/04/15 08:20:23;;;;;;;6.72;5.97;;;16.50;72.10;;;;;;5057874;28;20282;-64
2022/04/15 08:22:49;;;;;;;7.70;6.50;;;16.60;71.60;;;;;;5053886;28;20580;-64
2022/04/15 08:25:14;;;;;;;7.00;6.30;;;16.60;71.30;;;;;;5054916;28;20533;-64
2022/04/15 08:27:40;;;;;;;7.68;6.45;;;16.60;70.50;;;;;;5057729;28;20040;-64
2022/04/15 08:30:07;;;;;;;9.40;7.15;;;16.70;70.20;;;;;;5055466;28;20041;-64
2022/04/15 08:32:35;;;;;;;8.60;7.30;;;16.70;69.90;;;;;;5057177;28;21441;-64
2022/04/15 08:35:06;;;;;;;7.85;6.30;;;16.70;69.60;;;;;;5056611;28;20037;-64
2022/04/15 08:37:33;;;;;;;8.60;6.43;;;16.70;69.50;;;;;;5057571;28;20044;-63
2022/04/15 08:39:59;;;;;;;7.68;6.35;;;16.70;69.80;;;;;;5054595;28;20038;-64
2022/04/15 08:42:26;;;;;;;7.53;6.18;;;16.80;70.10;;;;;;5055836;28;20033;-63
2022/04/15 08:44:53;;;;;;;7.82;6.65;;;16.90;70.00;;;;;;5054188;28;20046;-64
2022/04/15 08:47:19;;;;;;;8.93;6.53;;;16.90;69.60;;;;;;5056116;28;20040;-64
2022/04/15 08:49:46;;;;;;;9.52;6.95;;;16.90;69.30;;;;;;5055954;28;20036;-65
2022/04/15 08:52:16;;;;;;;7.63;6.13;;;17.00;69.00;;;;;;5056856;28;20105;-64
2022/04/15 08:54:42;;;;;;;7.35;6.38;;;17.00;69.20;;;;;;5055586;28;20029;-64
2022/04/15 08:57:08;;;;;;;10.18;6.88;;;17.00;69.30;;;;;;5053831;28;21463;-64
2022/04/15 08:59:34;;;;;;;7.32;6.63;;;17.10;68.90;;;;;;5054547;28;20509;-64
2022/04/15 09:02:00;;;;;;;8.30;7.32;;;17.20;68.70;;;;;;5056550;28;20036;-64
2022/04/15 09:04:26;;;;;;;8.20;7.18;;;17.20;68.80;;;;;;5056157;28;20037;-64
2022/04/15 09:06:56;;;;;;;8.60;6.75;;;17.30;68.60;;;;;;5056786;28;20029;-63
2022/04/15 09:09:29;;;;;;;10.02;7.10;;;17.40;68.20;;;;;;5055773;28;20532;-64
2022/04/15 09:11:59;;;;;;;8.82;7.65;;;17.40;68.00;;;;;;5056016;28;20041;-64
2022/04/15 09:14:25;;;;;;;10.90;8.13;;;17.50;68.50;;;;;;5056359;28;20082;-64
2022/04/15 09:16:51;;;;;;;8.73;7.82;;;17.60;67.50;;;;;;5058598;28;20025;-64
2022/04/15 09:19:18;;;;;;;9.55;7.90;;;17.60;67.40;;;;;;5059449;28;20528;-63
2022/04/15 09:21:55;;;;;;;10.02;7.70;;;17.70;67.60;;;;;;5061314;28;20067;-64
2022/04/15 09:24:27;;;;;;;9.85;8.48;;;17.80;66.20;;;;;;5057799;28;20053;-65
2022/04/15 09:26:53;;;;;;;9.20;8.13;;;17.80;66.20;;;;;;5056905;28;20032;-64
2022/04/15 09:29:21;;;;;;;8.98;7.80;;;17.90;66.60;;;;;;5055850;28;20032;-64
2022/04/15 09:31:47;;;;;;;12.50;8.90;;;18.00;66.30;;;;;;5054683;28;20355;-64
2022/04/15 09:34:13;;;;;;;10.35;8.15;;;18.00;66.00;;;;;;5059133;28;20371;-64
2022/04/15 09:36:39;;;;;;;10.50;9.32;;;18.10;65.80;;;;;;5060064;28;20074;-64
2022/04/15 09:39:10;;;;;;;11.00;8.70;;;18.10;64.50;;;;;;5060274;28;20039;-65
2022/04/15 09:41:37;;;;;;;11.55;9.30;;;18.20;64.80;;;;;;5062175;28;20029;-65
2022/04/15 09:44:03;;;;;;;10.93;9.13;;;18.20;64.20;;;;;;5059021;28;20108;-64
2022/04/15 09:46:30;;;;;;;10.60;9.10;;;18.30;64.10;;;;;;5059118;28;20567;-65
2022/04/15 09:49:10;;;;;;;11.20;9.05;;;18.30;63.70;;;;;;5058638;28;20037;-64
2022/04/15 09:51:43;;;;;;;8.88;7.97;;;18.40;63.00;;;;;;5057290;28;20401;-64
2022/04/15 09:54:30;;;;;;;8.75;7.90;;;18.50;63.70;;;;;;5058966;28;20501;-64
2022/04/15 09:56:58;;;;;;;8.57;7.38;;;18.50;62.50;;;;;;5060309;28;20051;-65
2022/04/15 09:59:25;;;;;;;8.50;7.60;;;18.60;63.20;;;;;;5060734;28;20516;-65
2022/04/15 10:01:56;;;;;;;9.05;7.75;;;18.60;62.90;;;;;;5058779;28;20032;-65
2022/04/15 10:04:26;;;;;;;11.20;8.25;;;18.70;63.10;;;;;;5059554;28;20290;-64
2022/04/15 10:06:52;;;;;;;10.38;7.55;;;18.70;62.00;;;;;;5057142;28;20574;-65
2022/04/15 10:09:19;;;;;;;8.30;7.32;;;18.80;62.30;;;;;;5059885;28;20033;-64
2022/04/15 10:11:45;;;;;;;8.23;7.35;;;18.80;62.40;;;;;;5058933;28;20716;-65
2022/04/15 10:14:13;;;;;;;8.25;7.05;;;18.80;62.10;;;;;;5059025;28;20037;-64
2022/04/15 10:16:40;;;;;;;9.90;8.25;;;18.90;62.80;;;;;;5056633;28;20033;-64
2022/04/15 10:19:06;;;;;;;8.63;7.72;;;18.90;61.70;;;;;;5060001;28;20039;-64
2022/04/15 10:21:35;;;;;;;8.25;7.40;;;18.90;61.90;;;;;;5059555;28;20036;-65
2022/04/15 10:24:02;;;;;;;8.02;7.22;;;19.00;61.30;;;;;;5060595;28;20041;-64
2022/04/15 10:26:41;;;;;;;7.78;6.97;;;19.00;60.80;;;;;;5059562;28;20364;-65
2022/04/15 10:29:09;;;;;;;7.32;6.50;;;19.10;59.30;;;;;;5058587;28;20041;-64
2022/04/15 10:31:46;;;;;;;7.82;6.93;;;19.10;60.10;;;;;;5060007;28;20116;-64
2022/04/15 10:34:12;;;;;;;9.48;7.40;;;19.20;59.50;;;;;;5059680;28;20540;-63
2022/04/15 10:36:38;;;;;;;8.32;6.57;;;19.30;60.10;;;;;;5061151;28;20060;-67
2022/04/15 10:39:06;;;;;;;9.00;7.07;;;19.30;60.00;;;;;;5059535;28;20037;-64
2022/04/15 10:41:41;;;;;;;7.43;6.40;;;19.40;59.90;;;;;;5060853;28;20040;-65
2022/04/15 10:44:06;;;;;;;;;;;19.40;58.90;;;;;;5060976;28;20420;-65
2022/04/15 10:46:36;;;;;;;5.97;5.00;;;19.50;59.80;;;;;;5058075;28;19927;-65
2022/04/15 10:49:18;;;;;;;6.22;5.18;;;19.60;59.00;;;;;;5058061;28;20186;-64
2022/04/15 10:51:44;;;;;;;6.93;6.13;;;19.60;58.00;;;;;;5061490;28;20468;-63
2022/04/15 10:54:45;;;;;;;6.50;5.30;;;19.70;57.80;;;;;;5056624;28;20036;-64
2022/04/15 10:57:22;;;;;;;7.20;6.18;;;19.70;57.00;;;;;;5058351;28;20058;-64
2022/04/15 11:02:38;;;;;;;7.00;6.13;;;19.80;57.70;;;;;;5059567;28;20186;-65
2022/04/15 11:05:05;;;;;;;6.95;6.25;;;19.80;57.60;;;;;;5059816;28;20145;-65
2022/04/15 11:07:42;;;;;;;6.72;6.03;;;19.80;57.00;;;;;;5059503;28;20410;-65
2022/04/15 11:10:34;;;;;;;6.95;6.25;;;19.90;56.60;;;;;;5060049;28;20032;-65
2022/04/15 11:13:00;;;;;;;8.10;5.78;;;19.90;56.50;;;;;;5056447;28;20052;-65
2022/04/15 11:16:16;;;;;;;7.80;6.65;;;20.00;57.20;;;;;;5056848;28;20566;-65
2022/04/15 11:18:53;;;;;;;7.70;6.68;;;20.00;56.10;;;;;;4976770;28;20050;-65
2022/04/15 11:21:31;;;;;;;7.22;6.47;;;20.00;56.60;;;;;;5055800;28;20032;-64
2022/04/15 11:24:13;;;;;;;8.48;6.78;;;20.00;56.20;;;;;;5060471;28;20036;-65
2022/04/15 11:26:42;;;;;;;7.22;6.50;;;20.00;55.20;;;;;;5058234;28;20032;-64
2022/04/15 11:29:11;;;;;;;7.18;6.32;;;20.00;56.10;;;;;;5059988;28;20102;-64
2022/04/15 11:31:49;;;;;;;6.78;6.13;;;20.10;56.20;;;;;;5060106;28;20035;-65
2022/04/15 11:34:17;;;;;;;8.98;6.60;;;20.10;56.50;;;;;;5059300;28;20117;-65
2022/04/15 11:36:47;;;;;;;6.18;5.57;;;20.20;56.30;;;;;;5059166;28;20513;-65
2022/04/15 11:39:14;;;;;;;6.88;6.15;;;20.20;56.10;;;;;;5059202;28;20109;-64
2022/04/15 11:41:49;;;;;;;9.68;6.07;;;20.30;56.90;;;;;;5059603;28;20081;-65
2022/04/15 11:44:16;;;;;;;7.53;5.97;;;20.40;55.50;;;;;;5060790;28;20052;-65
2022/04/15 11:46:51;;;;;;;6.93;5.90;;;20.40;56.00;;;;;;5059305;28;20033;-64
2022/04/15 11:49:31;;;;;;;6.75;5.63;;;20.50;55.60;;;;;;5060381;28;20037;-64
2022/04/15 11:51:58;;;;;;;7.00;6.30;;;20.50;54.70;;;;;;5059986;28;20037;-65
2022/04/15 11:54:29;;;;;;;7.05;6.10;;;20.60;54.60;;;;;;5057525;28;20033;-64
2022/04/15 11:56:57;;;;;;;7.60;6.90;;;20.60;55.20;;;;;;5059184;28;22304;-64
2022/04/15 11:59:24;;;;;;;8.40;7.10;;;20.60;53.90;;;;;;5058696;28;20489;-65
2022/04/15 12:01:50;;;;;;;6.40;5.80;;;20.60;54.00;;;;;;5056947;28;20505;-65
2022/04/15 12:04:20;;;;;;;6.82;6.13;;;20.50;53.90;;;;;;5056315;28;20033;-64
2022/04/15 12:06:45;;;;;;;6.40;5.75;;;20.50;53.10;;;;;;5056785;28;20105;-65
2022/04/15 12:09:14;;;;;;;6.40;5.80;;;20.50;54.00;;;;;;5056173;28;20025;-64
2022/04/15 12:11:41;;;;;;;7.15;6.45;;;20.40;54.10;;;;;;5059780;28;20405;-65
2022/04/15 12:14:07;;;;;;;7.65;6.53;;;20.40;53.90;;;;;;5057421;28;20048;-64
2022/04/15 12:16:39;;;;;;;7.30;6.32;;;20.40;53.90;;;;;;5056524;28;20032;-64
2022/04/15 12:19:05;;;;;;;8.50;6.72;;;20.40;53.80;;;;;;5056749;28;20378;-63
2022/04/15 12:21:33;;;;;;;6.20;5.60;;;20.40;53.60;;;;;;5056208;28;20032;-65
2022/04/15 12:24:03;;;;;;;7.93;6.18;;;20.40;54.10;;;;;;5057688;28;20079;-65
2022/04/15 12:26:40;;;;;;;6.72;6.03;;;20.40;53.80;;;;;;5055566;28;20040;-64
2022/04/15 12:31:50;;;;;;;6.40;5.80;;;20.50;54.00;;;;;;5055902;28;20117;-65
2022/04/15 12:34:16;;;;;;;7.05;6.00;;;20.50;53.80;;;;;;5056113;28;20120;-65
2022/04/15 12:36:44;;;;;;;5.82;5.25;;;20.50;54.00;;;;;;5055290;28;20037;-64
2022/04/15 12:39:10;;;;;;;5.60;5.10;;;20.50;54.00;;;;;;5055508;28;20028;-64
2022/04/15 12:41:41;;;;;;;5.05;4.63;;;20.60;53.00;;;;;;5056264;28;20044;-65
2022/04/15 12:44:29;;;;;;;6.90;5.72;;;20.60;53.00;;;;;;5057326;28;20051;-64
2022/04/15 12:46:56;;;;;;;6.25;4.95;;;20.70;51.30;;;;;;5056199;28;20119;-64
2022/04/15 12:49:23;;;;;;;5.90;5.28;;;20.70;52.90;;;;;;5054061;28;20048;-64
2022/04/15 12:51:49;;;;;;;5.43;4.88;;;20.70;52.80;;;;;;5057378;28;20581;-65